Flight Track Log - Related Links

Times and Time Zones

All times are in EDT time to prevent confusion due to time zone crossing. See the QFA127 flight status page for this flight to view local times or setup timezone preferences in your user account.


Time Position Orientation Groundspeed Altitude Reporting Facility
EDT Latitude Longitude Course Direction KTS MPH feet Rate Location/Type
Thu 08:03:22 PM -33.9340 151.1690 174° South 3 3  Level FlightAware ADS-B
Thu 08:11:33 PM -33.9350 151.1710 90° East 6 7 14 Level FlightAware ADS-B
Thu 08:12:19 PM -33.9360 151.1710 180° South 8 9 18 Level FlightAware ADS-B
Thu 08:12:38 PM -33.9370 151.1720 140° Southeast 7 8 19 Level FlightAware ADS-B
Thu 08:13:38 PM -33.9390 151.1720 180° South 6 7 19 Level FlightAware ADS-B
Thu 08:14:33 PM -33.9410 151.1730 157° South 9 10 20 Level FlightAware ADS-B
Thu 08:15:04 PM -33.9420 151.1730 180° South 10 12 20 Level FlightAware ADS-B
Thu 08:15:33 PM -33.9440 151.1730 180° South 10 12 21 Level FlightAware ADS-B
Thu 08:16:04 PM -33.9450 151.1740 140° Southeast 8 9 21 Level FlightAware ADS-B
Thu 08:16:28 PM -33.9460 151.1740 180° South 7 8 22 Level FlightAware ADS-B
Thu 08:16:55 PM -33.9470 151.1740 180° South 8 9 22 Level FlightAware ADS-B
Thu 08:17:38 PM -33.9490 151.1750 157° South 15 17 23 Level FlightAware ADS-B
Thu 08:17:48 PM -33.9500 151.1750 180° South 15 17 23 Level FlightAware ADS-B
Thu 08:18:38 PM -33.9530 151.1760 165° South 10 12 23 Level FlightAware ADS-B
Thu 08:19:04 PM -33.9540 151.1760 180° South 7 8 24 Level FlightAware ADS-B
Thu 08:19:18 PM -33.9550 151.1760 180° South 5 6 25 Level FlightAware ADS-B
Thu 08:21:00 PM -33.7919 151.0247 322° Northwest  Level Estimated
Thu 08:21:18 PM -33.9560 151.1760 322° Northwest 4 5  Level FlightAware ADS-B
Thu 08:21:53 PM -33.9570 151.1770 140° Southeast 5 6 28 Level FlightAware ADS-B
Thu 08:24:00 PM -33.7539 150.9887 322° Northwest  Level Estimated
Thu 08:25:00 PM -33.6578 150.9000 322° Northwest  Level Estimated
Thu 08:26:00 PM -33.5617 150.8116 323° Northwest  Level Estimated
Thu 08:26:24 PM -33.9580 151.1770 323° Northwest 5 6  Level FlightAware ADS-B
Thu 08:27:08 PM -33.9590 151.1770 180° South 4 5 39 Level FlightAware ADS-B
Thu 08:27:48 PM -33.9600 151.1770 180° South 2 2 42 Level FlightAware ADS-B
Thu 08:30:00 PM -33.7489 150.9813 322° Northwest  Level Estimated
Thu 08:31:00 PM -33.6528 150.8926 322° Northwest  Level Estimated
Thu 08:31:04 PM -33.9600 151.1780 322° Northwest 3 3  Level FlightAware ADS-B
Thu 08:31:34 PM -33.9610 151.1780 180° South 5 6 62 Level FlightAware ADS-B
Thu 08:31:59 PM -33.9620 151.1780 180° South 6 7 67 Level FlightAware ADS-B
Thu 08:32:43 PM -33.9630 151.1780 180° South 1 1 70 Level FlightAware ADS-B
Thu 08:34:49 PM -33.9640 151.1780 180° South 5 6 79 Level FlightAware ADS-B
Thu 08:36:44 PM -33.9640 151.1810 90° East 8 9 117 Level FlightAware ADS-B
Thu 08:38:05 PM -33.9590 151.1790 342° North 82 94 213 Level FlightAware ADS-B
Thu 08:38:30 PM -33.9460 151.1760 349° North 146 168 500 Level FlightAware ADS-B
Thu 08:39:05 PM -33.9200 151.1690 347° North 165 190 500 1,000 Climbing FlightAware ADS-B
Thu 08:39:30 PM -33.9010 151.1640 346° North 166 191 1,000 1,320 Climbing FlightAware ADS-B
Thu 08:39:55 PM -33.8810 151.1580 346° North 175 201 1,600 1,200 Climbing FlightAware ADS-B
Thu 08:40:05 PM -33.8740 151.1530 329° Northwest 182 209 1,700 1,021 Climbing FlightAware ADS-B
Thu 08:40:42 PM -33.8493 151.1224 329° Northwest 196 226 2,400 766 Climbing Aus ATC (RADAR)
Thu 08:40:52 PM -33.8430 151.1130 329° Northwest 231 266 2,300 1,171 Descending FlightAware ADS-B
Thu 08:41:23 PM -33.8220 151.0810 308° West 247 284 3,200 1,467 Climbing FlightAware ADS-B
Thu 08:41:37 PM -33.8110 151.0660 311° West 263 303 3,400 955 Climbing FlightAware ADS-B
Thu 08:42:07 PM -33.7840 151.0290 311° West 301 346 3,900 900 Climbing FlightAware ADS-B
Thu 08:42:17 PM -33.7750 151.0170 312° West 316 364 4,000 1,200 Climbing FlightAware ADS-B
Thu 08:42:47 PM -33.7450 150.9750 311° West 340 391 4,700 1,650 Climbing FlightAware ADS-B
Thu 08:42:57 PM -33.7340 150.9610 313° West 342 394 5,100 2,700 Climbing FlightAware ADS-B
Thu 08:43:27 PM -33.7010 150.9170 312° West 342 394 6,500 2,618 Climbing FlightAware ADS-B
Thu 08:43:52 PM -33.6760 150.8830 311° West 344 396 7,500 2,341 Climbing FlightAware ADS-B
Thu 08:44:08 PM -33.6600 150.8620 312° West 342 394 8,100 2,267 Climbing FlightAware ADS-B
Thu 08:44:37 PM -33.6270 150.8160 311° West 348 400 9,200 2,027 Climbing FlightAware ADS-B
Thu 08:45:22 PM -33.5860 150.7640 313° West 357 411 10,600 2,049 Climbing FlightAware ADS-B
Thu 08:45:59 PM -33.5450 150.7160 316° Northwest 357 411 12,000 2,526 Climbing FlightAware ADS-B
Thu 08:46:38 PM -33.4880 150.6500 316° Northwest 358 412 13,800 2,286 Climbing FlightAware ADS-B
Thu 08:47:23 PM -33.4290 150.5820 316° Northwest 368 423 15,200 2,000 Climbing FlightAware ADS-B
Thu 08:48:05 PM -33.3758 150.5205 316° Northwest 372 428 16,700 1,733 Climbing Aus ATC (RADAR)
Thu 08:48:08 PM -33.3730 150.5170 316° Northwest 381 438 16,500 2,057 Descending FlightAware ADS-B
Thu 08:48:40 PM -33.3313 150.4692 316° Northwest 374 430 17,900 1,953 Climbing Aus ATC (RADAR)
Thu 08:48:51 PM -33.3190 150.4550 316° Northwest 385 443 17,900 1,174 Level FlightAware ADS-B
Thu 08:49:26 PM -33.2740 150.4030 316° Northwest 386 444 18,800 1,390 Climbing FlightAware ADS-B
Thu 08:50:13 PM -33.2100 150.3300 316° Northwest 403 464 19,800 1,592 Climbing FlightAware ADS-B
Thu 08:50:15 PM -33.2068 150.3266 316° Northwest 392 451 20,100 1,463 Climbing Aus ATC (RADAR)
Thu 08:50:54 PM -33.1590 150.2710 316° Northwest 406 467 20,800 1,077 Climbing FlightAware ADS-B
Thu 08:51:33 PM -33.1010 150.2050 316° Northwest 412 474 21,500 1,125 Climbing FlightAware ADS-B
Thu 08:52:14 PM -33.0470 150.1440 317° Northwest 423 487 22,300 1,733 Climbing FlightAware ADS-B
Thu 08:53:03 PM -32.9750 150.0610 316° Northwest 408 470 24,100 1,888 Climbing FlightAware ADS-B
Thu 08:53:43 PM -32.9120 150.0110 326° Northwest 416 479 25,100 1,558 Climbing FlightAware ADS-B
Thu 08:54:20 PM -32.8489 149.9692 326° Northwest 414 476 26,100 1,200 Climbing Aus ATC (RADAR)
Thu 08:54:28 PM -32.8350 149.9590 326° Northwest 412 474 26,000 684 Descending FlightAware ADS-B
Thu 08:55:39 PM -32.7230 149.8820 330° Northwest 412 474 27,000 1,024 Climbing FlightAware ADS-B
Thu 08:56:31 PM -32.6238 149.8171 330° Northwest 421 484 28,100 643 Climbing Aus ATC (RADAR)
Thu 08:56:35 PM -32.6270 149.8180 330° Northwest 429 494 27,600 -133 Descending FlightAware ADS-B
Thu 08:57:16 PM -32.5600 149.7720 330° Northwest 425 489 28,000 1,100 Climbing FlightAware ADS-B
Thu 08:57:54 PM -32.4880 149.7260 332° Northwest 29,100 1,367 Climbing FlightAware ADS-B
Thu 08:58:35 PM -32.4042 149.6701 332° Northwest 430 495 29,800 737 Climbing Aus ATC (RADAR)
Thu 08:58:51 PM -32.3790 149.6530 332° Northwest 446 513 29,800 1,091 Level FlightAware ADS-B
Thu 08:59:30 PM -32.3052 149.6038 332° Northwest 435 501 30,800 1,350 Climbing Aus ATC (RADAR)
Thu 08:59:31 PM -32.3060 149.6040 332° Northwest 444 511 30,700 1,731 Descending FlightAware ADS-B
Thu 09:00:22 PM -32.2181 149.5462 332° Northwest 419 482 32,300 1,424 Climbing Aus ATC (RADAR)
Thu 09:00:30 PM -32.2140 149.5430 332° Northwest 429 494 32,100 1,125 Descending FlightAware ADS-B
Thu 09:01:10 PM -32.1317 149.4886 332° Northwest 420 483 33,200 1,317 Climbing Aus ATC (RADAR)
Thu 09:01:11 PM -32.1340 149.4900 332° Northwest 429 494 33,000 2,057 Descending FlightAware ADS-B
Thu 09:01:45 PM -32.0723 149.4495 332° Northwest 410 472 34,400 1,733 Climbing Aus ATC (RADAR)
Thu 09:01:56 PM -32.0560 149.4380 332° Northwest 412 474 34,300 235 Descending FlightAware ADS-B
Thu 09:02:36 PM -31.9890 149.3940 331° Northwest 427 491 34,600 462 Climbing FlightAware ADS-B
Thu 09:03:27 PM -31.9070 149.3390 330° Northwest 426 490 35,000 875 Climbing FlightAware ADS-B
Thu 09:04:12 PM -31.8260 149.2860 331° Northwest 412 474 36,000 667 Climbing FlightAware ADS-B
Thu 09:04:57 PM -31.7480 149.2350 331° Northwest 421 484 36,000 106 Level FlightAware ADS-B
Thu 09:06:05 PM -31.6300 149.1577 331° Northwest 416 479 36,200  Climbing Aus ATC (RADAR)
Thu 09:06:10 PM -31.6880 149.1950 331° Northwest 423 487 36,000 -444 Descending FlightAware ADS-B
Thu 09:06:32 PM -31.5880 149.1300 331° Northwest 421 484 36,000  Level FlightAware ADS-B
Thu 09:07:14 PM -31.5210 149.0860 331° Northwest 412 474 36,000 164 Level FlightAware ADS-B
Thu 09:07:45 PM -31.4604 149.0470 331° Northwest 412 474 36,200  Climbing Aus ATC (RADAR)
Thu 09:07:57 PM -31.4410 149.0340 331° Northwest 410 472 36,000  Descending FlightAware ADS-B
Thu 09:08:35 PM -31.3765 148.9925 331° Northwest 409 471 36,200  Climbing Aus ATC (RADAR)
Thu 09:08:53 PM -31.3500 148.9750 331° Northwest 408 470 36,000  Descending FlightAware ADS-B
Thu 09:09:34 PM -31.2787 148.9286 331° Northwest 413 475 36,200  Climbing Aus ATC (RADAR)
Thu 09:09:37 PM -31.2760 148.9260 331° Northwest 405 466 36,000 -279 Descending FlightAware ADS-B
Thu 09:10:17 PM -31.2180 148.8890 331° Northwest 404 465 36,000  Level FlightAware ADS-B
Thu 09:10:57 PM -31.1440 148.8410 331° Northwest 408 470 36,000 255 Level FlightAware ADS-B
Thu 09:11:04 PM -31.1265 148.8301 331° Northwest 403 464 36,200  Climbing Aus ATC (RADAR)
Thu 09:11:37 PM -31.0750 148.7960 331° Northwest 409 471 36,000  Descending FlightAware ADS-B
Thu 09:11:39 PM -31.0687 148.7929 331° Northwest 403 464 36,200  Climbing Aus ATC (RADAR)
Thu 09:12:12 PM -31.0200 148.7610 331° Northwest 404 465 36,000  Descending FlightAware ADS-B
Thu 09:12:49 PM -30.9520 148.7177 331° Northwest 407 468 36,200  Climbing Aus ATC (RADAR)
Thu 09:13:02 PM -30.9350 148.7060 331° Northwest 405 466 36,000 -226 Descending FlightAware ADS-B
Thu 09:13:42 PM -30.8660 148.6610 331° Northwest 407 468 36,000  Level FlightAware ADS-B
Thu 09:14:22 PM -30.8000 148.6190 331° Northwest 407 468 36,000  Level FlightAware ADS-B
Thu 09:15:02 PM -30.7340 148.5770 331° Northwest 408 470 36,000 158 Level FlightAware ADS-B
Thu 09:15:38 PM -30.6699 148.5363 331° Northwest 416 479 36,200  Climbing Aus ATC (RADAR)
Thu 09:15:47 PM -30.6580 148.5280 331° Northwest 410 472 36,000 -245 Descending FlightAware ADS-B
Thu 09:16:27 PM -30.5890 148.4840 331° Northwest 411 473 36,000 286 Level FlightAware ADS-B
Thu 09:16:29 PM -30.5826 148.4806 331° Northwest 411 473 36,200 211 Climbing Aus ATC (RADAR)
Thu 09:17:24 PM -30.4898 148.4213 331° Northwest 410 472 36,200 -136 Level Aus ATC (RADAR)
Thu 09:17:57 PM -30.4410 148.3900 331° Northwest 407 468 36,000 -136 Descending FlightAware ADS-B
Thu 09:18:52 PM -30.3490 148.3310 331° Northwest 406 467 36,000  Level FlightAware ADS-B
Thu 09:19:34 PM -30.2840 148.2890 331° Northwest 406 467 36,000  Level FlightAware ADS-B
Thu 09:20:10 PM -30.2350 148.2550 329° Northwest 406 467 36,000 162 Level FlightAware ADS-B
Thu 09:20:48 PM -30.1492 148.2038 329° Northwest 414 476 36,200  Climbing Aus ATC (RADAR)
Thu 09:20:52 PM -30.1770 148.2170 329° Northwest 406 467 36,000  Descending FlightAware ADS-B
Thu 09:21:23 PM -30.0873 148.1655 329° Northwest 407 468 36,200  Climbing Aus ATC (RADAR)
Thu 09:21:41 PM -30.1090 148.1710 329° Northwest 406 467 36,000 -231 Descending FlightAware ADS-B
Thu 09:22:15 PM -30.0620 148.1400 330° Northwest 406 467 36,000  Level FlightAware ADS-B
Thu 09:22:50 PM -30.0130 148.1080 331° Northwest 406 467 36,000  Level FlightAware ADS-B
Thu 09:23:41 PM -29.9430 148.0610 330° Northwest 406 467 36,000  Level FlightAware ADS-B
Thu 09:24:15 PM -29.8960 148.0290 329° Northwest 406 467 36,000  Level FlightAware ADS-B
Thu 09:25:03 PM -29.8290 147.9850 330° Northwest 406 467 36,000 145 Level FlightAware ADS-B
Thu 09:25:38 PM -29.6949 147.8426 330° Northwest 405 466 36,200  Climbing Aus ATC (RADAR)
Thu 09:26:03 PM -29.7470 147.9300 330° Northwest 406 467 36,000 -197 Descending FlightAware ADS-B
Thu 09:26:39 PM -29.6970 147.8970 330° Northwest 406 467 36,000  Level FlightAware ADS-B
Thu 09:27:27 PM -29.6300 147.8530 330° Northwest 406 467 36,000  Level FlightAware ADS-B
Thu 09:28:02 PM -29.5820 147.8210 330° Northwest 406 467 36,000 182 Level FlightAware ADS-B
Thu 09:28:33 PM -29.4287 147.6182 330° Northwest 403 464 36,200  Climbing Aus ATC (RADAR)
Thu 09:28:51 PM -29.5140 147.7760 330° Northwest 406 467 36,000  Descending FlightAware ADS-B
Thu 09:29:23 PM -29.3534 147.5541 330° Northwest 402 463 36,200 148 Climbing Aus ATC (RADAR)
Thu 09:30:12 PM -29.2779 147.4895 323° Northwest 403 464 36,200  Level Aus ATC (RADAR)
Thu 09:30:47 PM -29.2272 147.4429 321° Northwest 402 463 36,200  Level Aus ATC (RADAR)
Thu 09:31:42 PM -29.1443 147.3720 323° Northwest 403 464 36,200  Level Aus ATC (RADAR)
Thu 09:32:37 PM -29.0600 147.3024 324° Northwest 404 465 36,200 -7 Level Aus ATC (RADAR)
Thu 09:38:27 PM -28.5695 146.8794 324° Northwest 36,000 -7 Descending Aus ATC (Calculated)
Thu 09:40:00 PM -28.4064 146.7469 323° Northwest  Level Estimated
Thu 09:41:00 PM -28.3022 146.6599 324° Northwest  Level FlightAware Approximate
Thu 09:42:00 PM -28.1979 146.5731 324° Northwest  Level FlightAware Approximate
Thu 09:43:00 PM -28.0936 146.4865 324° Northwest  Level FlightAware Approximate
Thu 09:43:27 PM -28.1278 146.5121 324° Northwest 36,000  Level Aus ATC (Calculated)
Thu 09:43:27 PM -28.1278 146.5121 324° Northwest 36,000  Level Aus ATC (Calculated)
Thu 09:44:00 PM -27.9892 146.4000 324° Northwest  Level FlightAware Approximate
Thu 09:45:00 PM -27.9659 146.3784 324° Northwest  Level FlightAware Approximate
Thu 09:46:00 PM -27.8613 146.2923 324° Northwest  Level FlightAware Approximate
Thu 09:47:00 PM -27.7567 146.2064 324° Northwest  Level FlightAware Approximate
Thu 09:48:00 PM -27.6520 146.1206 324° Northwest  Level FlightAware Approximate
Thu 09:48:26 PM -27.6408 146.1115 324° Northwest 36,000  Level Aus ATC (Calculated)
Thu 09:49:00 PM -27.5473 146.0351 324° Northwest  Level FlightAware Approximate
Thu 09:50:00 PM -27.4767 145.9776 324° Northwest  Level FlightAware Approximate
Thu 09:51:00 PM -27.3719 145.8923 324° Northwest  Level FlightAware Approximate
Thu 09:52:00 PM -27.2671 145.8071 324° Northwest  Level FlightAware Approximate
Thu 09:53:00 PM -27.1612 145.7237 324° Northwest  Level Estimated
Thu 09:53:26 PM -27.2138 145.7639 324° Northwest 36,000  Level Aus ATC (Calculated)
Thu 09:54:21 PM -27.1527 145.7145 324° Northwest 36,000  Level Aus ATC (Calculated)
Thu 09:56:00 PM -26.9796 145.5745 324° Northwest  Level FlightAware Approximate
Thu 09:57:00 PM -26.8746 145.4899 324° Northwest  Level FlightAware Approximate
Thu 09:58:00 PM -26.7695 145.4054 324° Northwest  Level FlightAware Approximate
Thu 09:59:00 PM -26.6644 145.3211 324° Northwest  Level FlightAware Approximate
Thu 09:59:15 PM -26.7078 145.3559 325° Northwest 36,000  Level Aus ATC (Calculated)
Thu 09:59:38 PM -26.6890 145.3410 324° Northwest 385 443 36,000  Level FlightAware ADS-B
Thu 10:00:23 PM -26.6230 145.2870 324° Northwest 384 442 36,000  Level FlightAware ADS-B
Thu 10:01:05 PM -26.5610 145.2380 325° Northwest 386 444 36,000  Level FlightAware ADS-B
Thu 10:01:33 PM -26.4850 145.1776 145° Southeast 36,000  Level Aus ATC (Calculated)
Thu 10:01:43 PM -26.5070 145.1950 325° Northwest 386 444 36,000  Level FlightAware ADS-B
Thu 10:02:29 PM -26.4400 145.1420 325° Northwest 383 441 36,000  Level FlightAware ADS-B
Thu 10:03:09 PM -26.3810 145.0950 324° Northwest 383 441 36,000  Level FlightAware ADS-B
Thu 10:03:53 PM -26.3190 145.0450 324° Northwest 383 441 36,000  Level FlightAware ADS-B
Thu 10:04:15 PM -26.2619 145.0000 318° Northwest 36,000  Level Aus ATC (Calculated)
Thu 10:04:34 PM -26.2600 144.9980 324° Northwest 384 442 36,000  Level FlightAware ADS-B
Thu 10:05:14 PM -26.2010 144.9510 324° Northwest 384 442 36,000  Level FlightAware ADS-B
Thu 10:05:57 PM -26.1380 144.9020 325° Northwest 387 445 36,000  Level FlightAware ADS-B
Thu 10:06:41 PM -26.0750 144.8510 324° Northwest 385 443 36,000  Level FlightAware ADS-B
Thu 10:07:21 PM -26.0170 144.8060 325° Northwest 386 444 36,000  Level FlightAware ADS-B
Thu 10:08:00 PM -25.9642 144.7642 322° Northwest 36,000  Level Aus ATC (Calculated)
Thu 10:08:02 PM -25.9560 144.7570 324° Northwest 385 443 36,000  Level FlightAware ADS-B
Thu 10:08:47 PM -25.8920 144.7070 324° Northwest 384 442 36,000  Level FlightAware ADS-B
Thu 10:09:29 PM -25.8300 144.6580 325° Northwest 382 440 36,000  Level FlightAware ADS-B
Thu 10:10:11 PM -25.7700 144.6110 325° Northwest 381 438 36,000  Level FlightAware ADS-B
Thu 10:10:51 PM -25.7120 144.5650 324° Northwest 382 440 36,000  Level FlightAware ADS-B
Thu 10:11:33 PM -25.6610 144.5250 325° Northwest 383 441 36,000  Level FlightAware ADS-B
Thu 10:12:14 PM -25.5910 144.4710 325° Northwest 382 440 36,000  Level FlightAware ADS-B
Thu 10:12:54 PM -25.5393 144.4304 326° Northwest 36,000  Level Aus ATC (Calculated)
Thu 10:12:59 PM -25.5270 144.4210 325° Northwest 382 440 36,000  Level FlightAware ADS-B
Thu 10:13:38 PM -25.4700 144.3760 325° Northwest 382 440 36,000  Level FlightAware ADS-B
Thu 10:14:21 PM -25.4090 144.3280 325° Northwest 380 437 36,000  Level FlightAware ADS-B
Thu 10:15:05 PM -25.3450 144.2780 325° Northwest 378 435 36,000  Level FlightAware ADS-B
Thu 10:16:15 PM -25.2450 144.2000 325° Northwest 378 435 36,000  Level FlightAware ADS-B
Thu 10:16:53 PM -25.1900 144.1580 325° Northwest 378 435 36,000  Level FlightAware ADS-B
Thu 10:17:39 PM -25.1240 144.1070 325° Northwest 380 437 36,000  Level FlightAware ADS-B
Thu 10:17:54 PM -25.0604 144.0576 149° Southeast 36,000  Level Aus ATC (Calculated)
Thu 10:18:20 PM -25.0640 144.0600 325° Northwest 380 437 36,000  Level FlightAware ADS-B
Thu 10:18:59 PM -25.0100 144.0180 325° Northwest 378 435 36,000  Level FlightAware ADS-B
Thu 10:19:45 PM -24.9430 143.9670 325° Northwest 380 437 36,000  Level FlightAware ADS-B
Thu 10:20:25 PM -24.8850 143.9220 325° Northwest 382 440 36,000  Level FlightAware ADS-B
Thu 10:21:06 PM -24.8250 143.8750 325° Northwest 382 440 36,000  Level FlightAware ADS-B
Thu 10:21:49 PM -24.7640 143.8290 326° Northwest 381 438 36,000  Level FlightAware ADS-B
Thu 10:22:29 PM -24.7050 143.7830 325° Northwest 383 441 36,000  Level FlightAware ADS-B
Thu 10:22:53 PM -24.6338 143.7286 144° Southeast 36,000  Level Aus ATC (Calculated)
Thu 10:23:15 PM -24.6380 143.7320 325° Northwest 384 442 36,000  Level FlightAware ADS-B
Thu 10:23:56 PM -24.5770 143.6850 325° Northwest 386 444 36,000  Level FlightAware ADS-B
Thu 10:24:39 PM -24.5150 143.6370 325° Northwest 384 442 36,000  Level FlightAware ADS-B
Thu 10:25:17 PM -24.4600 143.5950 325° Northwest 387 445 36,000  Level FlightAware ADS-B
Thu 10:26:03 PM -24.3920 143.5430 325° Northwest 392 451 36,000  Level FlightAware ADS-B
Thu 10:26:45 PM -24.3290 143.4950 325° Northwest 391 450 36,000  Level FlightAware ADS-B
Thu 10:27:27 PM -24.2660 143.4470 325° Northwest 389 448 36,000  Level FlightAware ADS-B
Thu 10:27:33 PM -24.1899 143.3892 145° Southeast 36,000  Level Aus ATC (Calculated)
Thu 10:28:08 PM -24.2050 143.4010 325° Northwest 392 451 36,000  Level FlightAware ADS-B
Thu 10:28:48 PM -24.1450 143.3550 325° Northwest 395 455 36,000  Level FlightAware ADS-B
Thu 10:29:31 PM -24.0820 143.3070 325° Northwest 393 452 36,000  Level FlightAware ADS-B
Thu 10:30:14 PM -24.0170 143.2580 325° Northwest 392 451 36,000  Level FlightAware ADS-B
Thu 10:30:56 PM -23.9540 143.2100 325° Northwest 392 451 36,000  Level FlightAware ADS-B
Thu 10:31:39 PM -23.8890 143.1610 325° Northwest 395 455 36,000  Level FlightAware ADS-B
Thu 10:32:20 PM -23.8280 143.1150 325° Northwest 395 455 36,000  Level FlightAware ADS-B
Thu 10:32:27 PM -23.7692 143.0703 311° West 36,000  Level Aus ATC (Calculated)
Thu 10:33:00 PM -23.7690 143.0700 325° Northwest 395 455 36,000  Level FlightAware ADS-B
Thu 10:33:44 PM -23.7010 143.0190 325° Northwest 395 455 36,000  Level FlightAware ADS-B
Thu 10:34:28 PM -23.6360 142.9700 325° Northwest 393 452 36,000  Level FlightAware ADS-B
Thu 10:35:05 PM -23.5800 142.9270 325° Northwest 394 453 36,000  Level FlightAware ADS-B
Thu 10:35:51 PM -23.5100 142.8750 326° Northwest 395 455 36,000  Level FlightAware ADS-B
Thu 10:36:25 PM -23.4181 142.8060 146° Southeast 36,000  Level Aus ATC (Calculated)
Thu 10:36:32 PM -23.4490 142.8290 325° Northwest 398 458 36,000  Level FlightAware ADS-B
Thu 10:37:16 PM -23.3810 142.7780 325° Northwest 399 459 36,000  Level FlightAware ADS-B
Thu 10:37:27 PM -23.3478 142.7533 325° Northwest 36,000  Level Aus ATC (Calculated)
Thu 10:37:27 PM -23.3478 142.7533 325° Northwest 36,000  Level Aus ATC (Calculated)
Thu 10:37:56 PM -23.3210 142.7330 325° Northwest 398 458 36,000  Level FlightAware ADS-B
Thu 10:38:36 PM -23.2600 142.6870 325° Northwest 398 458 36,000  Level FlightAware ADS-B
Thu 10:39:22 PM -23.1910 142.6360 326° Northwest 402 463 36,000  Level FlightAware ADS-B
Thu 10:40:04 PM -23.1240 142.5860 326° Northwest 403 464 36,000  Level FlightAware ADS-B
Thu 10:40:38 PM -23.0730 142.5480 326° Northwest 401 461 36,000  Level FlightAware ADS-B
Thu 10:41:26 PM -23.0000 142.4940 326° Northwest 400 460 36,000  Level FlightAware ADS-B
Thu 10:42:10 PM -22.9320 142.4430 325° Northwest 399 459 36,000  Level FlightAware ADS-B
Thu 10:42:27 PM -22.8553 142.3861 145° Southeast 36,000  Level Aus ATC (Calculated)
Thu 10:42:50 PM -22.8710 142.3980 326° Northwest 399 459 36,000  Level FlightAware ADS-B
Thu 10:43:32 PM -22.8080 142.3510 326° Northwest 400 460 36,000  Level FlightAware ADS-B
Thu 10:44:16 PM -22.7400 142.3000 325° Northwest 402 463 36,000  Level FlightAware ADS-B
Thu 10:44:17 PM -22.7144 142.2817 325° Northwest 36,000  Level Aus ATC (Calculated)
Thu 10:44:56 PM -22.6780 142.2540 326° Northwest 404 465 36,000  Level FlightAware ADS-B
Thu 10:45:19 PM -22.6440 142.2290 326° Northwest 404 465 36,000  Level FlightAware ADS-B
Thu 10:46:17 PM -22.5510 142.1610 326° Northwest 401 461 36,000  Level FlightAware ADS-B
Thu 10:46:36 PM -22.5030 142.1254 146° Southeast 36,000  Level Aus ATC (Calculated)
Thu 10:46:46 PM -22.5080 142.1290 325° Northwest 399 459 36,000  Level FlightAware ADS-B
Thu 10:47:28 PM -22.4440 142.0820 325° Northwest 398 458 36,000  Level FlightAware ADS-B
Thu 10:48:08 PM -22.3830 142.0370 326° Northwest 397 457 36,000  Level FlightAware ADS-B
Thu 10:48:17 PM -22.3619 142.0215 325° Northwest 36,000  Level Aus ATC (Calculated)
Thu 10:48:50 PM -22.3200 141.9900 326° Northwest 398 458 36,000  Level FlightAware ADS-B
Thu 10:49:35 PM -22.2500 141.9390 326° Northwest 399 459 36,000  Level FlightAware ADS-B
Thu 10:50:14 PM -22.1930 141.8970 326° Northwest 399 459 36,000  Level FlightAware ADS-B
Thu 10:50:57 PM -22.1240 141.8470 326° Northwest 400 460 36,000  Level FlightAware ADS-B
Thu 10:51:31 PM -22.0796 141.8143 322° Northwest 36,000  Level Aus ATC (Calculated)
Thu 10:51:39 PM -22.0710 141.8070 325° Northwest 400 460 36,000  Level FlightAware ADS-B
Thu 10:52:15 PM -22.0250 141.7720 325° Northwest 400 460 36,000  Level FlightAware ADS-B
Thu 10:52:16 PM -22.0090 141.7626 323° Northwest 36,000  Level Aus ATC (Calculated)
Thu 10:53:04 PM -21.9610 141.7240 325° Northwest 400 460 36,000  Level FlightAware ADS-B
Thu 10:53:46 PM -21.8640 141.6570 327° Northwest 403 464 36,000  Level FlightAware ADS-B
Thu 10:54:28 PM -21.7990 141.6100 326° Northwest 403 464 36,000  Level FlightAware ADS-B
Thu 10:55:09 PM -21.7350 141.5630 326° Northwest 403 464 36,000  Level FlightAware ADS-B
Thu 10:55:52 PM -21.6700 141.5150 326° Northwest 403 464 36,000  Level FlightAware ADS-B
Thu 10:56:32 PM -21.6060 141.4690 326° Northwest 403 464 36,000  Level FlightAware ADS-B
Thu 10:57:10 PM -21.4767 141.3752 146° Southeast 36,000  Level Aus ATC (Calculated)
Thu 10:57:16 PM -21.5410 141.4220 326° Northwest 405 466 36,000  Level FlightAware ADS-B
Thu 10:57:52 PM -21.4830 141.3800 326° Northwest 407 468 36,000  Level FlightAware ADS-B
Thu 10:58:34 PM -21.4180 141.3330 326° Northwest 409 471 36,000  Level FlightAware ADS-B
Thu 10:59:22 PM -21.3410 141.2770 326° Northwest 409 471 36,000  Level FlightAware ADS-B
Thu 11:00:05 PM -21.2740 141.2280 326° Northwest 409 471 36,000  Level FlightAware ADS-B
Thu 11:00:48 PM -21.2060 141.1800 327° Northwest 411 473 36,000  Level FlightAware ADS-B
Thu 11:01:26 PM -21.1450 141.1360 326° Northwest 412 474 36,000  Level FlightAware ADS-B
Thu 11:02:10 PM -21.0750 141.0850 326° Northwest 413 475 36,000  Level FlightAware ADS-B
Thu 11:02:10 PM -21.0028 141.0332 144° Southeast 36,000  Level Aus ATC (Calculated)
Thu 11:02:52 PM -21.0090 141.0380 326° Northwest 412 474 36,000  Level FlightAware ADS-B
Thu 11:03:34 PM -20.9420 140.9900 326° Northwest 411 473 36,000  Level FlightAware ADS-B
Thu 11:04:16 PM -20.8760 140.9420 326° Northwest 413 475 36,000  Level FlightAware ADS-B
Thu 11:04:55 PM -20.7062 140.8206 146° Southeast 36,000  Level Aus ATC (Calculated)
Thu 11:05:00 PM -20.8060 140.8920 326° Northwest 415 478 36,000  Level FlightAware ADS-B
Thu 11:06:26 PM -20.6810 140.8020 326° Northwest 414 476 36,000  Level FlightAware ADS-B
Thu 11:06:57 PM -20.6270 140.7640 327° Northwest 414 476 36,000  Level FlightAware ADS-B
Thu 11:07:09 PM -20.4688 140.6510 146° Southeast 36,000  Level Aus ATC (Calculated)
Thu 11:07:41 PM -20.5490 140.7080 327° Northwest 414 476 36,000  Level FlightAware ADS-B
Thu 11:08:29 PM -20.4720 140.6540 327° Northwest 414 476 36,000  Level FlightAware ADS-B
Thu 11:09:10 PM -20.4070 140.6070 326° Northwest 415 478 36,000  Level FlightAware ADS-B
Thu 11:09:51 PM -20.3410 140.5600 326° Northwest 415 478 36,000  Level FlightAware ADS-B
Thu 11:10:37 PM -20.2670 140.5080 327° Northwest 417 480 36,000  Level FlightAware ADS-B
Thu 11:11:32 PM -20.1790 140.4450 326° Northwest 421 484 36,000  Level FlightAware ADS-B
Thu 11:12:11 PM -20.1150 140.3990 326° Northwest 422 486 36,000  Level FlightAware ADS-B
Thu 11:12:14 PM -19.9946 140.3020 143° Southeast 36,000  Level Aus ATC (Calculated)
Thu 11:12:55 PM -20.0470 140.3440 326° Northwest 419 482 36,000  Level FlightAware ADS-B
Thu 11:13:36 PM -19.9840 140.2930 323° Northwest 420 483 36,000  Level FlightAware ADS-B
Thu 11:14:15 PM -19.9240 140.2450 323° Northwest 419 482 36,000  Level FlightAware ADS-B
Thu 11:15:00 PM -19.8540 140.1880 323° Northwest 420 483 36,000  Level FlightAware ADS-B
Thu 11:15:29 PM -19.8080 140.1510 323° Northwest 422 486 36,000  Level FlightAware ADS-B
Thu 11:16:06 PM -19.6411 140.0157 143° Southeast 36,000  Level Aus ATC (Calculated)
Thu 11:16:19 PM -19.7310 140.0880 322° Northwest 423 487 36,000  Level FlightAware ADS-B
Thu 11:16:59 PM -19.6680 140.0370 322° Northwest 424 488 36,000  Level FlightAware ADS-B
Thu 11:17:09 PM -19.5231 139.9205 143° Southeast 36,000  Level Aus ATC (Calculated)
Thu 11:17:42 PM -19.6020 139.9840 322° Northwest 425 489 36,000  Level FlightAware ADS-B
Thu 11:18:23 PM -19.5370 139.9320 323° Northwest 426 490 36,000  Level FlightAware ADS-B
Thu 11:19:03 PM -19.4740 139.8810 323° Northwest 426 490 36,000  Level FlightAware ADS-B
Thu 11:19:47 PM -19.4050 139.8250 323° Northwest 426 490 36,000  Level FlightAware ADS-B
Thu 11:20:31 PM -19.3350 139.7690 323° Northwest 426 490 36,000  Level FlightAware ADS-B
Thu 11:21:11 PM -19.2720 139.7180 323° Northwest 426 490 36,000  Level FlightAware ADS-B
Thu 11:21:55 PM -19.2020 139.6620 323° Northwest 426 490 36,000  Level FlightAware ADS-B
Thu 11:22:08 PM -19.0508 139.5412 143° Southeast 36,000  Level Aus ATC (Calculated)
Thu 11:22:31 PM -19.1460 139.6180 323° Northwest 426 490 36,000  Level FlightAware ADS-B
Thu 11:23:06 PM -18.9917 139.4940 143° Southeast 36,000  Level Aus ATC (Calculated)
Thu 11:23:13 PM -19.0810 139.5650 323° Northwest 427 491 36,000  Level FlightAware ADS-B
Thu 11:24:11 PM -18.9960 139.4970 323° Northwest 428 493 36,000  Level FlightAware ADS-B
Thu 11:24:54 PM -18.9210 139.4380 323° Northwest 431 496 36,000  Level FlightAware ADS-B
Thu 11:25:52 PM -18.8360 139.3690 322° Northwest 434 499 36,000  Level FlightAware ADS-B
Thu 11:26:33 PM -18.7670 139.3150 323° Northwest 435 501 36,000  Level FlightAware ADS-B
Thu 11:27:08 PM -18.5777 139.1641 143° Southeast 36,000  Level Aus ATC (Calculated)
Thu 11:27:14 PM -18.6960 139.2580 323° Northwest 436 502 36,000  Level FlightAware ADS-B
Thu 11:27:53 PM -18.6330 139.2080 323° Northwest 436 502 36,000  Level FlightAware ADS-B
Thu 11:28:39 PM -18.5580 139.1480 323° Northwest 435 501 36,000  Level FlightAware ADS-B
Thu 11:29:21 PM -18.4900 139.0950 324° Northwest 436 502 36,000  Level FlightAware ADS-B
Thu 11:30:04 PM -18.4220 139.0400 322° Northwest 437 503 36,000  Level FlightAware ADS-B
Thu 11:30:45 PM -18.3560 138.9890 324° Northwest 438 504 36,000  Level FlightAware ADS-B
Thu 11:31:29 PM -18.2820 138.9300 323° Northwest 438 504 36,000  Level FlightAware ADS-B
Thu 11:32:07 PM -18.0890 138.7773 143° Southeast 36,000  Level Aus ATC (Calculated)
Thu 11:32:25 PM -18.1920 138.8580 323° Northwest 438 504 36,000  Level FlightAware ADS-B
Thu 11:33:07 PM -18.1240 138.8050 323° Northwest 440 506 36,000  Level FlightAware ADS-B
Thu 11:33:41 PM -18.0670 138.7600 323° Northwest 440 506 36,000  Level FlightAware ADS-B
Thu 11:34:06 PM -17.9110 138.6371 143° Southeast 36,000  Level Aus ATC (Calculated)
Thu 11:34:28 PM -18.0000 138.7070 323° Northwest 440 506 36,000  Level FlightAware ADS-B
Thu 11:35:04 PM -17.9500 138.6670 323° Northwest 440 506 36,000 710 Level FlightAware ADS-B
Thu 11:35:16 PM -17.7774 138.5322 143° Southeast 36,000 1,158 Level Aus ATC (Calculated)
Thu 11:35:16 PM -17.7774 138.5322 143° Southeast 36,000 1,467 Level Aus ATC (Calculated)
Thu 11:36:01 PM -17.8480 138.5880 324° Northwest 442 509 37,100 805 Climbing FlightAware ADS-B
Thu 11:36:38 PM -17.7970 138.5470 324° Northwest 442 509 37,100  Level FlightAware ADS-B
Thu 11:37:26 PM -17.7300 138.4940 323° Northwest 442 509 37,100  Level FlightAware ADS-B
Thu 11:38:02 PM -17.6800 138.4550 323° Northwest 442 509 37,100  Level FlightAware ADS-B
Thu 11:38:46 PM -17.4210 138.2531 144° Southeast 36,000  Descending Aus ATC (Calculated)
Thu 11:38:48 PM -17.6160 138.4040 323° Northwest 442 509 37,100 1,320 Climbing FlightAware ADS-B
Thu 11:39:36 PM -17.5500 138.3510 323° Northwest 442 509 37,100  Level FlightAware ADS-B
Thu 11:40:12 PM -17.5000 138.3120 323° Northwest 442 509 37,100  Level FlightAware ADS-B
Thu 11:40:52 PM -17.4440 138.2680 323° Northwest 442 509 37,100  Level FlightAware ADS-B
Thu 11:41:40 PM -17.3780 138.2150 323° Northwest 442 509 37,100  Level FlightAware ADS-B
Thu 11:42:16 PM -17.3280 138.1760 323° Northwest 442 509 37,100  Level FlightAware ADS-B
Thu 11:43:03 PM -17.2620 138.1250 324° Northwest 442 509 37,100  Level FlightAware ADS-B
Thu 11:43:39 PM -17.2120 138.0850 323° Northwest 442 509 37,100  Level FlightAware ADS-B
Thu 11:43:46 PM -16.8856 137.8365 144° Southeast 36,000  Descending Aus ATC (Calculated)
Thu 11:44:27 PM -17.1460 138.0330 323° Northwest 442 509 37,100 857 Climbing FlightAware ADS-B
Thu 11:45:03 PM -17.0960 137.9930 323° Northwest 442 509 37,100 40 Level FlightAware ADS-B
Thu 11:47:00 PM -16.8932 137.8364 324° Northwest  Level FlightAware Approximate
Thu 11:48:00 PM -16.7891 137.7562 324° Northwest  Level FlightAware Approximate
Thu 11:48:46 PM -16.3493 137.4222 323° Northwest 36,000  Level Aus ATC (Calculated)
Thu 11:50:00 PM -16.2210 137.3236 324° Northwest  Level FlightAware Approximate
Thu 11:50:18 PM -16.1703 137.2847 324° Northwest 36,000  Level Aus ATC (Calculated)
Thu 11:51:14 PM -16.0808 137.2160 324° Northwest 36,000 121 Level Aus ATC (Calculated)
Thu 11:52:00 PM -15.9934 137.1489 324° Northwest  Level FlightAware Approximate
Thu 11:53:00 PM -15.8969 137.0750 324° Northwest  Level FlightAware Approximate
Thu 11:53:45 PM -15.8121 137.0102 324° Northwest 36,000  Level Aus ATC (Calculated)
Thu 11:53:55 PM -15.8121 137.0102 324° Northwest 36,000 153 Level Aus ATC (Calculated)
Thu 11:54:50 PM -15.6777 136.9075 324° Northwest 36,000 155 Level Aus ATC (Calculated)
Thu 11:55:00 PM -15.6993 136.9240 324° Northwest  Level FlightAware Approximate
Thu 11:56:00 PM -15.5561 136.8148 324° Northwest  Level FlightAware Approximate
Thu 11:57:00 PM -15.4519 136.7354 324° Northwest  Level FlightAware Approximate
Thu 11:58:00 PM -15.3476 136.6561 324° Northwest  Level FlightAware Approximate
Thu 11:59:00 PM -15.4519 136.7354 144° Southeast  Level FlightAware Approximate
Fri 12:00:00 AM -15.3476 136.6561 324° Northwest  Level FlightAware Approximate
Fri 12:00:45 AM -15.0975 136.4663 323° Northwest 38,000  Level Aus ATC (Calculated)
Fri 12:01:00 AM -15.4519 136.7354 144° Southeast  Level FlightAware Approximate
Fri 12:02:00 AM -15.3476 136.6561 324° Northwest  Level FlightAware Approximate
Fri 12:03:00 AM -15.2041 136.5472 324° Northwest  Level FlightAware Approximate
Fri 12:04:00 AM -15.0998 136.4681 324° Northwest  Level FlightAware Approximate
Fri 12:05:00 AM -14.9954 136.3890 324° Northwest  Level FlightAware Approximate
Fri 12:06:00 AM -14.8910 136.3101 324° Northwest  Level FlightAware Approximate
Fri 12:06:49 AM -14.7447 136.1964 324° Northwest 469 540 38,000  Level Aus ATC (RADAR)
Fri 12:09:13 AM -14.4970 136.0102 324° Northwest 451 519 38,000  Level Aus ATC (RADAR)
Fri 12:09:48 AM -14.4387 135.9643 323° Northwest 451 519 38,000  Level Aus ATC (RADAR)
Fri 12:10:39 AM -14.3511 135.9001 325° Northwest 455 524 38,000  Level Aus ATC (RADAR)
Fri 12:14:33 AM -13.9541 135.6017 324° Northwest 446 513 38,000  Level Aus ATC (RADAR)
Fri 12:15:43 AM -13.8332 135.5121 324° Northwest 451 519 38,000  Level Aus ATC (RADAR)
Fri 12:17:08 AM -13.6898 135.4052 324° Northwest 444 511 38,000  Level Aus ATC (RADAR)
Fri 12:18:58 AM -13.5021 135.2653 324° Northwest 449 517 38,000  Level Aus ATC (RADAR)
Fri 12:21:22 AM -13.2535 135.0827 324° Northwest 453 521 38,000  Level Aus ATC (RADAR)
Fri 12:22:07 AM -13.1736 135.0243 325° Northwest 459 528 38,000  Level Aus ATC (RADAR)
Fri 12:23:02 AM -13.0708 134.9504 325° Northwest 480 552 38,000  Level Aus ATC (RADAR)
Fri 12:23:47 AM -12.9936 134.8927 324° Northwest 462 532 38,000  Level Aus ATC (RADAR)
Fri 12:24:22 AM -12.9334 134.8477 324° Northwest 456 525 38,000  Level Aus ATC (RADAR)
Fri 12:25:17 AM -12.8392 134.7778 324° Northwest 451 519 38,000  Level Aus ATC (RADAR)
Fri 12:25:57 AM -12.7719 134.7257 323° Northwest 449 517 38,000  Level Aus ATC (RADAR)
Fri 12:26:52 AM -12.6751 134.6565 325° Northwest 452 520 38,000  Level Aus ATC (RADAR)
Fri 12:27:27 AM -12.6143 134.6119 324° Northwest 451 519 38,000  Level Aus ATC (RADAR)
Fri 12:28:22 AM -12.5180 134.5420 325° Northwest 455 524 38,000  Level Aus ATC (RADAR)
Fri 12:29:12 AM -12.4329 134.4789 324° Northwest 448 516 38,000  Level Aus ATC (RADAR)
Fri 12:30:12 AM -12.3303 134.4027 324° Northwest 447 514 38,000  Level Aus ATC (RADAR)
Fri 12:30:43 AM -12.2780 134.3630 324° Northwest 461 531 38,000  Level FlightAware ADS-B
Fri 12:31:24 AM -12.2080 134.3110 324° Northwest 459 528 38,000  Level FlightAware ADS-B
Fri 12:32:01 AM -12.1390 134.2624 324° Northwest 450 518 38,000  Level Aus ATC (RADAR)
Fri 12:32:09 AM -12.1360 134.2590 324° Northwest 459 528 38,000  Level FlightAware ADS-B
Fri 12:32:51 AM -12.0519 134.1983 324° Northwest 452 520 38,000  Level Aus ATC (RADAR)
Fri 12:33:01 AM -12.0540 134.1980 324° Northwest 458 527 38,000  Level FlightAware ADS-B
Fri 12:33:39 AM -11.9740 134.1400 324° Northwest 459 528 38,000  Level FlightAware ADS-B
Fri 12:33:41 AM -11.9671 134.1351 324° Northwest 443 510 38,000  Level Aus ATC (RADAR)
Fri 12:34:16 AM -11.9071 134.0909 324° Northwest 447 514 38,000  Level Aus ATC (RADAR)
Fri 12:34:39 AM -11.8750 134.0670 324° Northwest 461 531 38,000  Level FlightAware ADS-B
Fri 12:35:11 AM -11.8067 134.0208 324° Northwest 460 529 38,000  Level Aus ATC (RADAR)
Fri 12:35:19 AM -11.8020 134.0140 324° Northwest 455 524 38,000  Level FlightAware ADS-B
Fri 12:36:04 AM -11.7240 133.9570 324° Northwest 456 525 38,000  Level FlightAware ADS-B
Fri 12:36:44 AM -11.6530 133.9050 324° Northwest 456 525 38,000  Level FlightAware ADS-B
Fri 12:36:46 AM -11.6468 133.9004 324° Northwest 444 511 38,000  Level Aus ATC (RADAR)
Fri 12:37:29 AM -11.5750 133.8480 324° Northwest 455 524 38,000  Level FlightAware ADS-B
Fri 12:38:14 AM -11.4980 133.7920 325° Northwest 456 525 38,000  Level FlightAware ADS-B
Fri 12:38:49 AM -11.4540 133.7600 325° Northwest 457 526 38,000  Level FlightAware ADS-B
Fri 12:39:34 AM -11.3590 133.6900 324° Northwest 457 526 38,000  Level FlightAware ADS-B
Fri 12:40:19 AM -11.2780 133.6320 325° Northwest 456 525 38,000  Level FlightAware ADS-B
Fri 12:40:59 AM -11.2100 133.5820 324° Northwest 455 524 38,000  Level FlightAware ADS-B
Fri 12:41:31 AM -11.1479 133.5375 324° Northwest 456 525 38,000  Level Aus ATC (RADAR)
Fri 12:41:39 AM -11.1460 133.5350 324° Northwest 456 525 38,000  Level FlightAware ADS-B
Fri 12:42:21 AM -11.0634 133.4751 324° Northwest 436 502 38,000  Level Aus ATC (RADAR)
Fri 12:42:24 AM -11.0640 133.4760 324° Northwest 457 526 38,000  Level FlightAware ADS-B
Fri 12:43:04 AM -10.9950 133.4250 324° Northwest 459 528 38,000  Level FlightAware ADS-B
Fri 12:43:44 AM -10.9230 133.3730 325° Northwest 461 531 38,000  Level FlightAware ADS-B
Fri 12:44:29 AM -10.8390 133.3120 325° Northwest 463 533 38,000  Level FlightAware ADS-B
Fri 12:45:14 AM -10.7600 133.2550 325° Northwest 462 532 38,000  Level FlightAware ADS-B
Fri 12:45:54 AM -10.6900 133.2040 324° Northwest 463 533 38,000  Level FlightAware ADS-B
Fri 12:46:34 AM -10.6180 133.1520 325° Northwest 463 533 38,000  Level FlightAware ADS-B
Fri 12:47:14 AM -10.5510 133.1040 325° Northwest 463 533 38,000  Level FlightAware ADS-B
Fri 12:47:59 AM -10.4660 133.0420 324° Northwest 463 533 38,000  Level FlightAware ADS-B
Fri 12:48:40 AM -10.3970 132.9920 325° Northwest 462 532 38,000  Level FlightAware ADS-B
Fri 12:49:15 AM -10.3314 132.9452 325° Northwest 452 520 38,000  Level Aus ATC (RADAR)
Fri 12:49:20 AM -10.3260 132.9410 325° Northwest 460 529 38,000  Level FlightAware ADS-B
Fri 12:49:50 AM -10.2695 132.9004 325° Northwest 451 519 38,000  Level Aus ATC (RADAR)
Fri 12:50:05 AM -10.2450 132.8830 325° Northwest 460 529 38,000  Level FlightAware ADS-B
Fri 12:50:45 AM -10.1720 132.8297 325° Northwest 454 522 38,000  Level Aus ATC (RADAR)
Fri 12:50:50 AM -10.1660 132.8250 325° Northwest 459 528 38,000  Level FlightAware ADS-B
Fri 12:51:20 AM -10.1110 132.7857 325° Northwest 452 520 38,000  Level Aus ATC (RADAR)
Fri 12:51:30 AM -10.0960 132.7750 325° Northwest 459 528 38,000  Level FlightAware ADS-B
Fri 12:52:10 AM -10.0250 132.7230 324° Northwest 457 526 38,000  Level FlightAware ADS-B
Fri 12:52:49 AM -9.9590 132.6760 324° Northwest 455 524 38,000  Level FlightAware ADS-B
Fri 12:52:55 AM -9.9451 132.6665 324° Northwest 446 513 38,000  Level Aus ATC (RADAR)
Fri 12:53:43 AM -9.8730 132.6120 324° Northwest 454 522 38,000  Level FlightAware ADS-B
Fri 12:53:49 AM -9.8493 132.5974 324° Northwest 445 512 38,000  Level Aus ATC (RADAR)
Fri 12:54:24 AM -9.7883 132.5534 324° Northwest 446 513 38,000  Level Aus ATC (RADAR)
Fri 12:54:31 AM -9.8040 132.5600 324° Northwest 454 522 38,000  Level FlightAware ADS-B
Fri 12:55:19 AM -9.6921 132.4841 324° Northwest 446 513 38,000  Level Aus ATC (RADAR)
Fri 12:55:54 AM -9.6313 132.4412 325° Northwest 443 510 38,000  Level Aus ATC (RADAR)
Fri 12:56:54 AM -9.5253 132.3645 324° Northwest 450 518 38,000  Level Aus ATC (RADAR)
Fri 12:57:44 AM -9.4372 132.3018 325° Northwest 447 514 38,000  Level Aus ATC (RADAR)
Fri 12:58:04 AM -9.4040 132.2770 325° Northwest 461 531 38,000  Level FlightAware ADS-B
Fri 12:58:34 AM -9.3490 132.2387 325° Northwest 448 516 38,000  Level Aus ATC (RADAR)
Fri 12:59:04 AM -9.3050 132.2060 325° Northwest 462 532 38,000  Level FlightAware ADS-B
Fri 12:59:09 AM -9.2870 132.1940 325° Northwest 450 518 38,000  Level Aus ATC (RADAR)
Fri 12:59:55 AM -9.2180 132.1430 324° Northwest 470 541 38,000  Level FlightAware ADS-B
Fri 01:00:29 AM -9.1550 132.0980 325° Northwest 470 541 38,000  Level FlightAware ADS-B
Fri 01:01:18 AM -9.0820 132.0440 324° Northwest 470 541 38,000  Level FlightAware ADS-B
Fri 01:01:54 AM -9.0280 132.0050 324° Northwest 470 541 38,000  Level FlightAware ADS-B
Fri 01:01:59 AM -8.9850 131.9787 324° Northwest 450 518 38,000  Level Aus ATC (RADAR)
Fri 01:02:42 AM -8.9570 131.9520 324° Northwest 470 541 38,000  Level FlightAware ADS-B
Fri 01:03:18 AM -8.9030 131.9120 324° Northwest 470 541 38,000  Level FlightAware ADS-B
Fri 01:04:07 AM -8.8290 131.8580 324° Northwest 470 541 38,000  Level FlightAware ADS-B
Fri 01:04:43 AM -8.7760 131.8190 324° Northwest 470 541 38,000  Level FlightAware ADS-B
Fri 01:05:31 AM -8.7040 131.7660 324° Northwest 470 541 38,000  Level FlightAware ADS-B
Fri 01:05:57 AM -8.6650 131.7370 324° Northwest 470 541 38,000  Level FlightAware ADS-B
Fri 01:06:46 AM -8.5920 131.6840 324° Northwest 470 541 38,000  Level FlightAware ADS-B
Fri 01:07:18 AM -8.4083 131.5678 324° Northwest 449 517 38,000  Level Aus ATC (RADAR)
Fri 01:07:23 AM -8.5360 131.6430 324° Northwest 470 541 38,000  Level FlightAware ADS-B
Fri 01:08:11 AM -8.4650 131.5900 324° Northwest 470 541 38,000  Level FlightAware ADS-B
Fri 01:08:13 AM -8.3093 131.4959 331° Northwest 456 525 38,000  Level Aus ATC (RADAR)
Fri 01:08:47 AM -8.4110 131.5510 324° Northwest 470 541 38,000  Level FlightAware ADS-B
Fri 01:09:36 AM -8.3370 131.4970 324° Northwest 470 541 38,000  Level FlightAware ADS-B
Fri 01:12:00 AM -8.0656 131.3449 331° Northwest  Level Estimated
Fri 01:13:00 AM -7.9526 131.2816 331° Northwest  Level Estimated
Fri 01:14:00 AM -7.8395 131.2183 331° Northwest  Level Estimated
Fri 01:15:00 AM -7.7264 131.1550 331° Northwest  Level Estimated
Fri 01:16:00 AM -7.6133 131.0918 331° Northwest  Level Estimated
Fri 01:17:00 AM -7.5002 131.0286 331° Northwest  Level Estimated
Fri 01:17:00 AM -7.3161 130.9399 331° Northwest  Level Estimated
Fri 01:18:00 AM -7.3870 130.9655 331° Northwest  Level Estimated
Fri 01:19:00 AM -7.2739 130.9024 331° Northwest  Level Estimated
Fri 01:20:00 AM -7.1607 130.8393 331° Northwest  Level Estimated
Fri 01:21:00 AM -7.0476 130.7762 331° Northwest  Level Estimated
Fri 01:22:00 AM -6.9344 130.7132 331° Northwest  Level Estimated
Fri 01:24:00 AM -6.5241 130.4986 331° Northwest  Level Estimated
Fri 01:25:00 AM -6.4109 130.4357 331° Northwest  Level Estimated
Fri 01:26:00 AM -6.2978 130.3728 331° Northwest  Level Estimated
Fri 01:27:00 AM -6.1846 130.3099 331° Northwest  Level Estimated
Fri 01:28:00 AM -6.0714 130.2470 331° Northwest  Level Estimated
Fri 01:29:00 AM -5.9582 130.1842 331° Northwest  Level Estimated
Fri 01:30:00 AM -5.8450 130.1214 331° Northwest  Level Estimated
Fri 01:31:00 AM -5.7317 130.0587 331° Northwest  Level Estimated
Fri 01:32:00 AM -5.6185 129.9959 331° Northwest  Level Estimated
Fri 01:33:00 AM -5.5053 129.9332 331° Northwest  Level Estimated
Fri 01:34:00 AM -5.3920 129.8705 331° Northwest  Level Estimated
Fri 01:35:00 AM -5.2788 129.8078 331° Northwest  Level Estimated
Fri 01:36:00 AM -5.1655 129.7452 331° Northwest  Level Estimated
Fri 01:37:00 AM -5.0523 129.6826 331° Northwest  Level Estimated
Fri 01:38:00 AM -4.9390 129.6200 331° Northwest  Level Estimated
Fri 01:39:00 AM -4.8257 129.5574 331° Northwest  Level Estimated
Fri 01:40:00 AM -4.7125 129.4948 331° Northwest  Level Estimated
Fri 01:41:00 AM -4.5992 129.4323 331° Northwest  Level Estimated
Fri 01:42:00 AM -4.4859 129.3698 331° Northwest  Level Estimated
Fri 01:43:00 AM -4.3726 129.3073 331° Northwest  Level Estimated
Fri 01:44:00 AM -4.2593 129.2448 331° Northwest  Level Estimated
Fri 01:45:00 AM -4.1460 129.1823 331° Northwest  Level Estimated
Fri 01:46:00 AM -4.0327 129.1199 331° Northwest  Level Estimated
Fri 01:47:00 AM -3.9194 129.0574 331° Northwest  Level Estimated
Fri 01:48:00 AM -3.8061 128.9950 331° Northwest  Level Estimated
Fri 01:49:00 AM -3.6927 128.9326 331° Northwest  Level Estimated
Fri 01:50:00 AM -3.5794 128.8703 331° Northwest  Level Estimated
Fri 01:51:00 AM -3.4661 128.8079 331° Northwest  Level Estimated
Fri 01:52:00 AM -3.3527 128.7455 331° Northwest  Level Estimated
Fri 01:53:00 AM -3.2394 128.6832 331° Northwest  Level Estimated
Fri 01:54:00 AM -3.1260 128.6209 331° Northwest  Level Estimated
Fri 01:55:00 AM -3.0127 128.5586 331° Northwest  Level Estimated
Fri 01:56:00 AM -2.8993 128.4963 331° Northwest  Level Estimated
Fri 01:57:00 AM -2.7860 128.4340 331° Northwest  Level Estimated
Fri 01:58:00 AM -2.6726 128.3717 331° Northwest  Level Estimated
Fri 01:59:00 AM -2.5593 128.3095 331° Northwest  Level Estimated
Fri 02:00:00 AM -2.4459 128.2472 331° Northwest  Level Estimated
Fri 02:01:00 AM -2.3326 128.1850 331° Northwest  Level Estimated
Fri 02:02:00 AM -2.2192 128.1228 331° Northwest  Level Estimated
Fri 02:03:00 AM -2.1058 128.0605 331° Northwest  Level Estimated
Fri 02:04:00 AM -1.9924 127.9983 331° Northwest  Level Estimated
Fri 02:05:00 AM -1.8791 127.9361 331° Northwest  Level Estimated
Fri 02:06:00 AM -1.7657 127.8739 331° Northwest  Level Estimated
Fri 02:07:00 AM -1.6523 127.8118 331° Northwest  Level Estimated
Fri 02:08:00 AM -1.5389 127.7496 331° Northwest  Level Estimated
Fri 02:09:00 AM -1.4255 127.6874 331° Northwest  Level Estimated
Fri 02:10:00 AM -1.3122 127.6253 331° Northwest  Level Estimated
Fri 02:11:00 AM -1.1988 127.5631 331° Northwest  Level Estimated
Fri 02:12:00 AM -1.0854 127.5009 331° Northwest  Level Estimated
Fri 02:13:00 AM -0.9720 127.4388 331° Northwest  Level Estimated
Fri 02:14:00 AM -0.8586 127.3766 331° Northwest  Level Estimated
Fri 02:15:00 AM -0.7452 127.3145 331° Northwest  Level Estimated
Fri 02:16:00 AM -0.6318 127.2524 331° Northwest  Level Estimated
Fri 02:17:00 AM -0.5184 127.1902 331° Northwest  Level Estimated
Fri 02:18:00 AM -0.4050 127.1281 331° Northwest  Level Estimated
Fri 02:19:00 AM -0.2916 127.0660 331° Northwest  Level Estimated
Fri 02:20:00 AM -0.1782 127.0038 331° Northwest  Level Estimated
Fri 02:21:00 AM -0.0648 126.9417 331° Northwest  Level Estimated
Fri 02:22:00 AM 0.0486 126.8796 331° Northwest  Level Estimated
Fri 02:23:00 AM 0.1620 126.8175 331° Northwest  Level Estimated
Fri 02:24:00 AM 0.2754 126.7553 331° Northwest  Level Estimated
Fri 02:25:00 AM 0.3887 126.6932 331° Northwest  Level Estimated
Fri 02:26:00 AM 0.5021 126.6311 331° Northwest  Level Estimated
Fri 02:27:00 AM 0.6155 126.5689 331° Northwest  Level Estimated
Fri 02:28:00 AM 0.7289 126.5068 331° Northwest  Level Estimated
Fri 02:29:00 AM 0.8423 126.4446 331° Northwest  Level Estimated
Fri 02:30:00 AM 0.9557 126.3825 331° Northwest  Level Estimated
Fri 02:31:00 AM 1.0691 126.3204 331° Northwest  Level Estimated
Fri 02:32:00 AM 1.1825 126.2582 331° Northwest  Level Estimated
Fri 02:33:00 AM 1.2959 126.1961 331° Northwest  Level Estimated
Fri 02:34:00 AM 1.4093 126.1339 331° Northwest  Level Estimated
Fri 02:35:00 AM 1.5226 126.0717 331° Northwest  Level Estimated
Fri 02:36:00 AM 1.6360 126.0095 331° Northwest  Level Estimated
Fri 02:37:00 AM 1.7494 125.9474 331° Northwest  Level Estimated
Fri 02:38:00 AM 1.8628 125.8852 331° Northwest  Level Estimated
Fri 02:39:00 AM 1.9762 125.8230 331° Northwest  Level Estimated
Fri 02:40:00 AM 2.0895 125.7608 331° Northwest  Level Estimated
Fri 02:41:00 AM 2.2029 125.6985 331° Northwest  Level Estimated
Fri 02:42:00 AM 2.3163 125.6363 331° Northwest  Level Estimated
Fri 02:43:00 AM 2.4296 125.5741 331° Northwest  Level Estimated
Fri 02:44:00 AM 2.5430 125.5118 331° Northwest  Level Estimated
Fri 02:45:00 AM 2.6564 125.4496 331° Northwest  Level Estimated
Fri 02:46:00 AM 2.7697 125.3873 331° Northwest  Level Estimated
Fri 02:47:00 AM 2.8831 125.3250 331° Northwest  Level Estimated
Fri 02:48:00 AM 2.9964 125.2627 331° Northwest  Level Estimated
Fri 02:49:00 AM 3.1098 125.2004 331° Northwest  Level Estimated
Fri 02:50:00 AM 3.2231 125.1381 331° Northwest  Level Estimated
Fri 02:51:00 AM 3.3365 125.0758 331° Northwest  Level Estimated
Fri 02:52:00 AM 3.4498 125.0134 331° Northwest  Level Estimated
Fri 02:53:00 AM 3.5631 124.9510 331° Northwest  Level Estimated
Fri 02:54:00 AM 3.6765 124.8887 331° Northwest  Level Estimated
Fri 02:55:00 AM 3.7898 124.8263 331° Northwest  Level Estimated
Fri 02:56:00 AM 3.9031 124.7639 331° Northwest  Level Estimated
Fri 02:57:00 AM 4.0164 124.7014 331° Northwest  Level Estimated
Fri 02:58:00 AM 4.1297 124.6390 331° Northwest  Level Estimated
Fri 02:59:00 AM 4.2430 124.5765 331° Northwest  Level Estimated
Fri 03:00:00 AM 4.3563 124.5141 331° Northwest  Level Estimated
Fri 03:01:00 AM 4.4696 124.4516 331° Northwest  Level Estimated
Fri 03:02:00 AM 4.5829 124.3890 331° Northwest  Level Estimated
Fri 03:03:00 AM 4.6962 124.3265 331° Northwest  Level Estimated
Fri 03:04:00 AM 4.8095 124.2639 331° Northwest  Level Estimated
Fri 03:05:00 AM 4.9227 124.2014 331° Northwest  Level Estimated
Fri 03:06:00 AM 5.0360 124.1388 331° Northwest  Level Estimated
Fri 03:07:00 AM 5.1493 124.0761 331° Northwest  Level Estimated
Fri 03:08:00 AM 5.2625 124.0135 331° Northwest  Level Estimated
Fri 03:09:00 AM 5.3758 123.9508 331° Northwest  Level Estimated
Fri 03:10:00 AM 5.4890 123.8881 331° Northwest  Level Estimated
Fri 03:11:00 AM 5.6022 123.8254 331° Northwest  Level Estimated
Fri 03:12:00 AM 5.7155 123.7627 331° Northwest  Level Estimated
Fri 03:13:00 AM 5.8287 123.6999 331° Northwest  Level Estimated
Fri 03:14:00 AM 5.9419 123.6371 331° Northwest  Level Estimated
Fri 03:15:00 AM 6.0551 123.5743 331° Northwest  Level Estimated
Fri 03:16:00 AM 6.1683 123.5115 331° Northwest  Level Estimated
Fri 03:17:00 AM 6.2815 123.4486 331° Northwest  Level Estimated
Fri 03:18:00 AM 6.3947 123.3857 331° Northwest  Level Estimated
Fri 03:19:00 AM 6.5079 123.3228 331° Northwest  Level Estimated
Fri 03:20:00 AM 6.6210 123.2598 331° Northwest  Level Estimated
Fri 03:21:00 AM 6.7342 123.1969 331° Northwest  Level Estimated
Fri 03:22:00 AM 6.8473 123.1339 331° Northwest  Level Estimated
Fri 03:23:00 AM 6.9605 123.0708 331° Northwest  Level Estimated
Fri 03:24:00 AM 7.0736 123.0078 331° Northwest  Level Estimated
Fri 03:25:00 AM 7.1868 122.9446 331° Northwest  Level Estimated
Fri 03:26:00 AM 7.2999 122.8815 331° Northwest  Level Estimated
Fri 03:27:00 AM 7.4130 122.8184 331° Northwest  Level Estimated
Fri 03:28:00 AM 7.5261 122.7552 331° Northwest  Level Estimated
Fri 03:29:00 AM 7.6392 122.6919 331° Northwest  Level Estimated
Fri 03:30:00 AM 7.7523 122.6287 331° Northwest  Level Estimated
Fri 03:31:00 AM 7.8653 122.5654 331° Northwest  Level Estimated
Fri 03:32:00 AM 7.9784 122.5020 331° Northwest  Level Estimated
Fri 03:33:00 AM 8.0915 122.4387 331° Northwest  Level Estimated
Fri 03:34:00 AM 8.2045 122.3753 331° Northwest  Level Estimated
Fri 03:35:00 AM 8.3175 122.3118 331° Northwest  Level Estimated
Fri 03:36:00 AM 8.4306 122.2484 331° Northwest  Level Estimated
Fri 03:37:00 AM 8.5436 122.1848 331° Northwest  Level Estimated
Fri 03:38:00 AM 8.6566 122.1213 331° Northwest  Level Estimated
Fri 03:39:00 AM 8.7696 122.0577 331° Northwest  Level Estimated
Fri 03:40:00 AM 8.8826 121.9941 331° Northwest  Level Estimated
Fri 03:41:00 AM 8.9956 121.9304 331° Northwest  Level Estimated
Fri 03:42:00 AM 9.1085 121.8667 331° Northwest  Level Estimated
Fri 03:43:00 AM 9.2215 121.8029 331° Northwest  Level Estimated
Fri 03:44:00 AM 9.3344 121.7392 331° Northwest  Level Estimated
Fri 03:45:00 AM 9.4473 121.6753 331° Northwest  Level Estimated
Fri 03:46:00 AM 9.5603 121.6115 331° Northwest  Level Estimated
Fri 03:47:00 AM 9.6732 121.5475 331° Northwest  Level Estimated
Fri 03:48:00 AM 9.7861 121.4836 331° Northwest  Level Estimated
Fri 03:49:00 AM 9.8989 121.4196 331° Northwest  Level Estimated
Fri 03:50:00 AM 10.0118 121.3555 331° Northwest  Level Estimated
Fri 03:51:00 AM 10.1247 121.2915 331° Northwest  Level Estimated
Fri 03:52:00 AM 10.2375 121.2273 331° Northwest  Level Estimated
Fri 03:53:00 AM 10.3504 121.1631 331° Northwest  Level Estimated
Fri 03:54:00 AM 10.4632 121.0989 331° Northwest  Level Estimated
Fri 03:55:00 AM 10.5760 121.0347 331° Northwest  Level Estimated
Fri 03:56:00 AM 10.6888 120.9703 331° Northwest  Level Estimated
Fri 03:57:00 AM 10.8015 120.9060 331° Northwest  Level Estimated
Fri 03:58:00 AM 10.9143 120.8416 331° Northwest  Level Estimated
Fri 03:59:00 AM 11.0271 120.7771 331° Northwest  Level Estimated
Fri 04:00:00 AM 11.1398 120.7126 331° Northwest  Level Estimated
Fri 04:01:00 AM 11.2525 120.6480 331° Northwest  Level Estimated
Fri 04:02:00 AM 11.3652 120.5834 331° Northwest  Level Estimated
Fri 04:03:00 AM 11.4780 120.5188 331° Northwest  Level Estimated
Fri 04:04:00 AM 11.5906 120.4540 331° Northwest  Level Estimated
Fri 04:05:00 AM 11.7033 120.3893 331° Northwest  Level Estimated
Fri 04:06:00 AM 11.8160 120.3244 331° Northwest  Level Estimated
Fri 04:07:00 AM 11.9286 120.2596 331° Northwest  Level Estimated
Fri 04:08:00 AM 12.0412 120.1946 331° Northwest  Level Estimated
Fri 04:09:00 AM 12.1538 120.1297 331° Northwest  Level Estimated
Fri 04:10:00 AM 12.2664 120.0646 331° Northwest  Level Estimated
Fri 04:10:22 AM 11.7200 119.6650 331° Northwest 467 537 38,000  Level FlightAware ADS-B
Fri 04:11:00 AM 12.3790 119.9995 331° Northwest  Level Estimated
Fri 04:11:09 AM 11.8040 119.6210 333° Northwest 467 537 38,000  Level FlightAware ADS-B
Fri 04:11:57 AM 11.8820 119.5810 333° Northwest 467 537 38,000  Level FlightAware ADS-B
Fri 04:12:57 AM 11.9810 119.5290 333° Northwest 467 537 38,000  Level FlightAware ADS-B
Fri 04:13:33 AM 12.0390 119.4990 333° Northwest 467 537 38,000  Level FlightAware ADS-B
Fri 04:14:22 AM 12.1200 119.4570 333° Northwest 467 537 38,000  Level FlightAware ADS-B
Fri 04:14:58 AM 12.1790 119.4260 333° Northwest 467 537 38,000  Level FlightAware ADS-B
Fri 04:15:35 AM 12.2390 119.3950 333° Northwest 467 537 38,000  Level FlightAware ADS-B
Fri 04:16:23 AM 12.3180 119.3540 333° Northwest 467 537 38,000  Level FlightAware ADS-B
Fri 04:17:17 AM 12.4060 119.3080 333° Northwest 467 537 38,000  Level FlightAware ADS-B
Fri 04:18:06 AM 12.4860 119.2660 333° Northwest 467 537 38,000  Level FlightAware ADS-B
Fri 04:18:41 AM 12.5430 119.2360 333° Northwest 467 537 38,000  Level FlightAware ADS-B
Fri 04:19:30 AM 12.6240 119.1940 333° Northwest 467 537 38,000  Level FlightAware ADS-B
Fri 04:20:07 AM 12.6840 119.1620 333° Northwest 467 537 38,000  Level FlightAware ADS-B
Fri 04:21:04 AM 12.9950 119.0150 335° Northwest 474 545 38,000  Level FlightAware ADS-B
Fri 04:21:46 AM 13.0740 118.9750 334° Northwest 475 547 38,000  Level FlightAware ADS-B
Fri 04:22:30 AM 13.1630 118.9290 333° Northwest 475 547 38,000  Level FlightAware ADS-B
Fri 04:23:10 AM 13.2430 118.8880 333° Northwest 474 545 38,000  Level FlightAware ADS-B
Fri 04:23:52 AM 13.3260 118.8450 333° Northwest 475 547 38,000  Level FlightAware ADS-B
Fri 04:24:34 AM 13.4080 118.8030 334° Northwest 478 550 38,000  Level FlightAware ADS-B
Fri 04:25:16 AM 13.4920 118.7600 334° Northwest 478 550 38,000  Level FlightAware ADS-B
Fri 04:25:58 AM 13.5760 118.7160 333° Northwest 478 550 38,000  Level FlightAware ADS-B
Fri 04:26:40 AM 13.6580 118.6740 334° Northwest 477 549 38,000  Level FlightAware ADS-B
Fri 04:27:25 AM 13.7470 118.6280 333° Northwest 481 554 38,000  Level FlightAware ADS-B
Fri 04:28:05 AM 13.8270 118.5870 334° Northwest 483 556 38,000  Level FlightAware ADS-B
Fri 04:28:46 AM 13.9110 118.5440 334° Northwest 485 558 38,000  Level FlightAware ADS-B
Fri 04:29:29 AM 13.9950 118.5000 333° Northwest 485 558 38,000  Level FlightAware ADS-B
Fri 04:30:13 AM 14.0840 118.4540 333° Northwest 484 557 38,000  Level FlightAware ADS-B
Fri 04:30:54 AM 14.1680 118.4110 334° Northwest 486 559 38,000  Level FlightAware ADS-B
Fri 04:31:36 AM 14.2500 118.3680 333° Northwest 485 558 38,000  Level FlightAware ADS-B
Fri 04:32:16 AM 14.3330 118.3250 333° Northwest 481 554 38,000  Level FlightAware ADS-B
Fri 04:32:58 AM 14.4140 118.2830 333° Northwest 478 550 38,000  Level FlightAware ADS-B
Fri 04:33:43 AM 14.4940 118.2410 333° Northwest 477 549 38,000  Level FlightAware ADS-B
Fri 04:34:16 AM 14.5700 118.2010 333° Northwest 478 550 38,000  Level FlightAware ADS-B
Fri 04:35:03 AM 14.6620 118.1540 334° Northwest 478 550 38,000  Level FlightAware ADS-B
Fri 04:35:48 AM 14.7510 118.1070 333° Northwest 477 549 38,000  Level FlightAware ADS-B
Fri 04:36:29 AM 14.8320 118.0640 333° Northwest 475 547 38,000  Level FlightAware ADS-B
Fri 04:37:10 AM 14.9070 118.0100 325° Northwest 476 548 38,000  Level FlightAware ADS-B
Fri 04:37:55 AM 14.9760 117.9560 323° Northwest 476 548 38,000  Level FlightAware ADS-B
Fri 04:38:32 AM 15.0540 117.9010 326° Northwest 476 548 38,000  Level FlightAware ADS-B
Fri 04:39:12 AM 15.1210 117.8560 327° Northwest 476 548 38,000  Level FlightAware ADS-B
Fri 04:40:02 AM 15.2000 117.8030 327° Northwest 476 548 38,000  Level FlightAware ADS-B
Fri 04:41:08 AM 15.3030 117.7340 327° Northwest 476 548 38,000  Level FlightAware ADS-B
Fri 04:41:48 AM 15.3660 117.6910 327° Northwest 476 548 38,000  Level FlightAware ADS-B
Fri 04:42:36 AM 15.4410 117.6410 327° Northwest 476 548 38,000  Level FlightAware ADS-B
Fri 04:43:12 AM 15.4980 117.6030 327° Northwest 476 548 38,000  Level FlightAware ADS-B
Fri 04:44:00 AM 15.5730 117.5520 327° Northwest 476 548 38,000  Level FlightAware ADS-B
Fri 04:44:37 AM 15.6310 117.5130 327° Northwest 476 548 38,000  Level FlightAware ADS-B
Fri 04:45:13 AM 15.6880 117.4740 327° Northwest 476 548 38,000  Level FlightAware ADS-B
Fri 04:45:58 AM 15.7580 117.4270 327° Northwest 476 548 38,000  Level FlightAware ADS-B
Fri 04:46:47 AM 15.8350 117.3750 327° Northwest 476 548 38,000  Level FlightAware ADS-B
Fri 04:47:23 AM 15.8920 117.3370 327° Northwest 476 548 38,000  Level FlightAware ADS-B
Fri 04:48:02 AM 15.9530 117.2950 326° Northwest 476 548 38,000 -533 Level FlightAware ADS-B
Fri 04:50:00 AM 16.1812 117.1783 334° Northwest  Level Estimated
Fri 04:51:00 AM 16.2973 117.1189 334° Northwest  Level Estimated
Fri 04:52:00 AM 16.4133 117.0594 334° Northwest  Level Estimated
Fri 04:53:00 AM 16.5293 116.9999 334° Northwest  Level Estimated
Fri 04:54:00 AM 16.6453 116.9402 334° Northwest  Level Estimated
Fri 04:55:00 AM 16.7612 116.8805 334° Northwest  Level Estimated
Fri 04:56:00 AM 16.8772 116.8207 334° Northwest  Level Estimated
Fri 04:57:00 AM 16.9931 116.7609 334° Northwest  Level Estimated
Fri 04:58:00 AM 17.1090 116.7010 334° Northwest  Level Estimated
Fri 04:59:00 AM 17.2249 116.6410 334° Northwest  Level Estimated
Fri 05:00:00 AM 17.3408 116.5809 334° Northwest  Level Estimated
Fri 05:01:00 AM 17.4567 116.5207 334° Northwest  Level Estimated
Fri 05:02:00 AM 17.5725 116.4605 334° Northwest  Level Estimated
Fri 05:03:00 AM 17.6883 116.4002 334° Northwest  Level Estimated
Fri 05:04:00 AM 17.8041 116.3398 334° Northwest  Level Estimated
Fri 05:05:00 AM 17.9199 116.2793 334° Northwest  Level Estimated
Fri 05:06:00 AM 18.0357 116.2188 334° Northwest  Level Estimated
Fri 05:07:00 AM 18.1515 116.1582 334° Northwest  Level Estimated
Fri 05:08:00 AM 18.2672 116.0975 334° Northwest  Level Estimated
Fri 05:09:00 AM 18.3829 116.0367 334° Northwest  Level Estimated
Fri 05:10:00 AM 18.4986 115.9758 333° Northwest  Level Estimated
Fri 05:11:00 AM 18.6143 115.9149 333° Northwest  Level Estimated
Fri 05:12:00 AM 18.7299 115.8539 333° Northwest  Level Estimated
Fri 05:13:00 AM 18.8455 115.7927 333° Northwest  Level Estimated
Fri 05:14:00 AM 18.9611 115.7315 333° Northwest  Level Estimated
Fri 05:15:00 AM 19.0767 115.6703 333° Northwest  Level Estimated
Fri 05:16:00 AM 19.1923 115.6089 333° Northwest  Level Estimated
Fri 05:17:00 AM 19.3079 115.5474 333° Northwest  Level Estimated
Fri 05:18:00 AM 19.4234 115.4859 333° Northwest  Level Estimated
Fri 05:19:00 AM 19.5389 115.4243 333° Northwest  Level Estimated
Fri 05:20:00 AM 19.6544 115.3625 333° Northwest  Level Estimated
Fri 05:21:00 AM 19.7699 115.3007 333° Northwest  Level Estimated
Fri 05:22:00 AM 19.8853 115.2388 333° Northwest  Level Estimated
Fri 05:23:00 AM 20.0007 115.1768 333° Northwest  Level Estimated
Fri 05:24:00 AM 20.1161 115.1148 333° Northwest  Level Estimated
Fri 05:25:00 AM 20.2315 115.0526 333° Northwest  Level Estimated
Fri 05:26:00 AM 20.3469 114.9903 333° Northwest  Level Estimated
Fri 05:27:00 AM 20.4622 114.9280 333° Northwest  Level Estimated
Fri 05:28:00 AM 20.5775 114.8655 333° Northwest  Level Estimated
Fri 05:29:00 AM 20.6928 114.8030 333° Northwest  Level Estimated
Fri 05:30:00 AM 20.8081 114.7403 333° Northwest  Level Estimated
Fri 05:31:00 AM 20.9233 114.6776 333° Northwest  Level Estimated
Fri 05:32:00 AM 21.0386 114.6148 333° Northwest  Level Estimated
Fri 05:33:00 AM 21.1538 114.5519 333° Northwest  Level Estimated
Fri 05:34:00 AM 21.2690 114.4888 333° Northwest  Level Estimated
Fri 05:35:00 AM 21.3841 114.4257 333° Northwest  Level Estimated
Fri 05:36:00 AM 21.4993 114.3625 333° Northwest  Level Estimated
Fri 05:37:00 AM 21.6144 114.2992 333° Northwest  Level Estimated
Fri 05:37:06 AM 21.7590 114.3330 333° Northwest 363 418 11,500  Level FlightAware ADS-B
Fri 05:37:40 AM 21.7890 114.2870 305° West 361 415 10,900 -1,071 Descending FlightAware ADS-B
Fri 05:38:30 AM 21.8400 114.2050 304° West 357 411 10,000 -1,169 Descending FlightAware ADS-B
Fri 05:38:57 AM 21.8640 114.1660 304° West 355 409 9,400 -1,286 Descending FlightAware ADS-B
Fri 05:39:26 AM 21.8880 114.1280 304° West 356 410 8,800 -1,345 Descending FlightAware ADS-B
Fri 05:39:55 AM 21.9160 114.0830 304° West 352 405 8,100 -1,269 Descending FlightAware ADS-B
Fri 05:40:18 AM 21.9340 114.0540 304° West 343 395 7,700 -857 Descending FlightAware ADS-B
Fri 05:41:19 AM 21.9640 114.0050 303° West 307 353 6,900 -651 Descending FlightAware ADS-B
Fri 05:41:41 AM 21.9700 113.9960 306° West 306 352 6,800 -1,698 Descending FlightAware ADS-B
Fri 05:42:12 AM 22.0270 113.9050 304° West 293 337 5,400 -1,172 Descending FlightAware ADS-B
Fri 05:43:08 AM 22.0540 113.8610 304° West 291 335 5,100 -340 Descending FlightAware ADS-B
Fri 05:44:33 AM 22.1360 113.7620 312° West 215 247 4,600 -495 Descending FlightAware ADS-B
Fri 05:44:57 AM 22.1570 113.7510 334° Northwest 214 246 4,200 -960 Descending FlightAware ADS-B
Fri 05:45:23 AM 22.1810 113.7390 335° Northwest 212 244 3,800 -700 Descending FlightAware ADS-B
Fri 05:45:57 AM 22.2100 113.7240 334° Northwest 192 221 3,500 -621 Descending FlightAware ADS-B
Fri 05:46:21 AM 22.2290 113.7170 341° North 186 214 3,200 -545 Descending FlightAware ADS-B
Fri 05:46:41 AM 22.2440 113.7240 23° Northeast 164 189 3,100 -273 Descending FlightAware ADS-B
Fri 05:47:05 AM 22.2580 113.7370 41° Northeast 161 185 3,000 -321 Descending FlightAware ADS-B
Fri 05:47:37 AM 22.2670 113.7600 67° East 162 186 2,800 -500 Descending FlightAware ADS-B
Fri 05:48:05 AM 22.2740 113.7820 71° East 161 185 2,500 -808 Descending FlightAware ADS-B
Fri 05:48:29 AM 22.2800 113.8010 71° East 155 178 2,100 -808 Descending FlightAware ADS-B
Fri 05:48:57 AM 22.2860 113.8200 71° East 148 170 1,800 -600 Descending FlightAware ADS-B
Fri 05:49:09 AM 22.2890 113.8290 70° East 137 158 1,700 -600 Descending FlightAware ADS-B
Fri 05:49:37 AM 22.2940 113.8460 72° East 122 140 1,400 -689 Descending FlightAware ADS-B
Fri 05:50:10 AM 22.3000 113.8650 71° East 121 139 1,000 -640 Descending FlightAware ADS-B
Fri 05:50:52 AM 22.3080 113.8890 70° East 125 144 600 -583 Descending FlightAware ADS-B
Fri 05:51:22 AM 22.3140 113.9070 70° East 110 127 300 -600 Descending FlightAware ADS-B
Fri 05:51:48 AM 22.3160 113.9150 75° East 30 35 -692 Descending FlightAware ADS-B
Fri 05:51:58 AM 22.3170 113.9160 43° Northeast 23 26  Level FlightAware ADS-B
Fri 05:52:29 AM 22.3160 113.9190 110° East 30 35  Level FlightAware ADS-B
Fri 05:52:58 AM 22.3160 113.9210 90° East 26 30  Level FlightAware ADS-B
Fri 05:53:27 AM 22.3170 113.9220 43° Northeast 25 29  Level FlightAware ADS-B
Fri 05:53:39 AM 22.3170 113.9230 90° East 24 28  Level FlightAware ADS-B
Fri 05:54:10 AM 22.3170 113.9240 90° East 18 21  Level FlightAware ADS-B
Fri 05:54:49 AM 22.3160 113.9250 137° Southeast 22 25  Level FlightAware ADS-B
Fri 05:55:45 AM 22.3150 113.9270 118° Southeast 25 29  Level FlightAware ADS-B
Fri 05:56:01 AM 22.3150 113.9280 90° East 21 24  Level FlightAware ADS-B
Fri 05:56:29 AM 22.3150 113.9290 90° East 25 29  Level FlightAware ADS-B
Fri 05:56:58 AM 22.3160 113.9310 62° Northeast 25 29  Level FlightAware ADS-B
Fri 05:57:24 AM 22.3160 113.9320 90° East 18 21  Level FlightAware ADS-B
Fri 05:58:04 AM 22.3160 113.9330 90° East 13 15  Level FlightAware ADS-B

Login

Don't have an account? Register now (free) for customized features, flight alerts, and more!